sensor_id;sensor_type;location;lat;lon;timestamp;pressure;altitude;pressure_sealevel;temperature;humidity
59106;BME280;44891;50.204;8.132;2023-09-12T00:01:40;97881.78;;;20.74;74.49
59106;BME280;44891;50.204;8.132;2023-09-12T00:05:50;97883.63;;;20.73;75.42
59106;BME280;44891;50.204;8.132;2023-09-12T00:09:52;97872.16;;;20.64;75.33
59106;BME280;44891;50.204;8.132;2023-09-12T00:13:56;97863.22;;;20.69;74.97
59106;BME280;44891;50.204;8.132;2023-09-12T00:17:58;97865.59;;;20.61;74.88
59106;BME280;44891;50.204;8.132;2023-09-12T00:22:00;97861.16;;;20.57;74.91
59106;BME280;44891;50.204;8.132;2023-09-12T00:26:02;97856.44;;;20.45;75.77
59106;BME280;44891;50.204;8.132;2023-09-12T00:30:07;97858.69;;;20.60;75.19
59106;BME280;44891;50.204;8.132;2023-09-12T00:34:09;97856.78;;;20.70;74.99
59106;BME280;44891;50.204;8.132;2023-09-12T00:38:11;97869.94;;;20.49;75.70
59106;BME280;44891;50.204;8.132;2023-09-12T00:42:13;97864.25;;;20.42;76.54
59106;BME280;44891;50.204;8.132;2023-09-12T00:46:19;97872.94;;;20.07;77.85
59106;BME280;44891;50.204;8.132;2023-09-12T00:50:23;97868.09;;;20.09;77.69
59106;BME280;44891;50.204;8.132;2023-09-12T00:54:27;97870.50;;;19.89;78.87
59106;BME280;44891;50.204;8.132;2023-09-12T00:58:29;97871.16;;;19.94;78.49
59106;BME280;44891;50.204;8.132;2023-09-12T01:02:35;97867.56;;;19.99;78.77
59106;BME280;44891;50.204;8.132;2023-09-12T01:06:38;97874.78;;;19.98;78.61
59106;BME280;44891;50.204;8.132;2023-09-12T01:10:40;97869.44;;;19.98;78.40
59106;BME280;44891;50.204;8.132;2023-09-12T01:14:47;97869.84;;;19.83;78.98
59106;BME280;44891;50.204;8.132;2023-09-12T01:18:50;97864.53;;;19.83;78.80
59106;BME280;44891;50.204;8.132;2023-09-12T01:22:59;97865.75;;;19.77;78.62
59106;BME280;44891;50.204;8.132;2023-09-12T01:27:16;97871.81;;;19.69;79.13
59106;BME280;44891;50.204;8.132;2023-09-12T01:31:20;97859.72;;;19.63;79.76
59106;BME280;44891;50.204;8.132;2023-09-12T01:35:23;97857.22;;;19.66;79.56
59106;BME280;44891;50.204;8.132;2023-09-12T01:39:25;97861.50;;;19.53;80.44
59106;BME280;44891;50.204;8.132;2023-09-12T01:43:29;97862.13;;;19.50;81.10
59106;BME280;44891;50.204;8.132;2023-09-12T01:47:34;97862.78;;;19.56;80.18
59106;BME280;44891;50.204;8.132;2023-09-12T01:51:36;97867.22;;;19.61;79.90
59106;BME280;44891;50.204;8.132;2023-09-12T01:55:39;97860.25;;;19.51;80.23
59106;BME280;44891;50.204;8.132;2023-09-12T01:59:42;97852.25;;;19.51;80.38
59106;BME280;44891;50.204;8.132;2023-09-12T02:03:44;97854.38;;;19.40;80.70
59106;BME280;44891;50.204;8.132;2023-09-12T02:07:48;97859.34;;;19.33;80.29
59106;BME280;44891;50.204;8.132;2023-09-12T02:11:50;97855.50;;;19.17;81.54
59106;BME280;44891;50.204;8.132;2023-09-12T02:15:59;97859.47;;;18.83;82.84
59106;BME280;44891;50.204;8.132;2023-09-12T02:20:02;97857.44;;;19.02;82.57
59106;BME280;44891;50.204;8.132;2023-09-12T02:24:07;97841.94;;;19.05;81.51
59106;BME280;44891;50.204;8.132;2023-09-12T02:28:09;97843.25;;;18.93;81.78
59106;BME280;44891;50.204;8.132;2023-09-12T02:32:12;97853.41;;;18.91;82.81
59106;BME280;44891;50.204;8.132;2023-09-12T02:36:15;97852.22;;;18.97;83.13
59106;BME280;44891;50.204;8.132;2023-09-12T02:40:17;97853.16;;;19.01;82.53
59106;BME280;44891;50.204;8.132;2023-09-12T02:44:20;97850.13;;;18.94;82.79
59106;BME280;44891;50.204;8.132;2023-09-12T02:48:23;97847.00;;;18.92;83.20
59106;BME280;44891;50.204;8.132;2023-09-12T02:52:25;97841.78;;;18.87;83.50
59106;BME280;44891;50.204;8.132;2023-09-12T02:56:27;97839.84;;;18.79;84.01
59106;BME280;44891;50.204;8.132;2023-09-12T03:00:29;97833.44;;;18.80;83.09
59106;BME280;44891;50.204;8.132;2023-09-12T03:04:35;97840.88;;;18.56;84.16
59106;BME280;44891;50.204;8.132;2023-09-12T03:08:37;97835.94;;;18.63;84.05
59106;BME280;44891;50.204;8.132;2023-09-12T03:12:40;97843.03;;;18.54;84.42
59106;BME280;44891;50.204;8.132;2023-09-12T03:16:42;97839.78;;;18.70;83.98
59106;BME280;44891;50.204;8.132;2023-09-12T03:20:46;97840.22;;;18.86;82.83
59106;BME280;44891;50.204;8.132;2023-09-12T03:24:48;97836.00;;;18.85;82.71
59106;BME280;44891;50.204;8.132;2023-09-12T03:28:50;97831.69;;;18.76;82.90
59106;BME280;44891;50.204;8.132;2023-09-12T03:32:52;97830.78;;;18.80;82.73
59106;BME280;44891;50.204;8.132;2023-09-12T03:36:56;97823.72;;;18.76;82.85
59106;BME280;44891;50.204;8.132;2023-09-12T03:40:58;97813.72;;;18.45;84.59
59106;BME280;44891;50.204;8.132;2023-09-12T03:45:01;97815.38;;;18.41;85.53
59106;BME280;44891;50.204;8.132;2023-09-12T03:49:03;97812.88;;;18.58;84.88
59106;BME280;44891;50.204;8.132;2023-09-12T03:53:07;97826.78;;;18.69;84.45
59106;BME280;44891;50.204;8.132;2023-09-12T03:57:10;97830.78;;;18.80;83.65
59106;BME280;44891;50.204;8.132;2023-09-12T04:01:12;97828.00;;;18.85;83.38
59106;BME280;44891;50.204;8.132;2023-09-12T04:05:14;97838.97;;;18.84;83.31
59106;BME280;44891;50.204;8.132;2023-09-12T04:09:18;97842.50;;;18.79;83.55
59106;BME280;44891;50.204;8.132;2023-09-12T04:13:20;97842.78;;;18.91;83.49
59106;BME280;44891;50.204;8.132;2023-09-12T04:17:22;97845.06;;;18.84;83.11
59106;BME280;44891;50.204;8.132;2023-09-12T04:21:25;97839.00;;;18.70;84.05
59106;BME280;44891;50.204;8.132;2023-09-12T04:25:28;97840.38;;;18.67;84.57
59106;BME280;44891;50.204;8.132;2023-09-12T04:29:32;97838.44;;;18.82;84.65
59106;BME280;44891;50.204;8.132;2023-09-12T04:33:34;97833.81;;;18.87;84.09
59106;BME280;44891;50.204;8.132;2023-09-12T04:37:37;97836.88;;;18.81;83.93
59106;BME280;44891;50.204;8.132;2023-09-12T04:41:41;97833.06;;;18.73;84.07
59106;BME280;44891;50.204;8.132;2023-09-12T04:45:43;97826.38;;;18.76;84.45
59106;BME280;44891;50.204;8.132;2023-09-12T04:49:45;97828.00;;;18.85;83.70
59106;BME280;44891;50.204;8.132;2023-09-12T04:53:47;97829.53;;;18.64;84.27
59106;BME280;44891;50.204;8.132;2023-09-12T04:57:53;97828.22;;;18.75;84.56
59106;BME280;44891;50.204;8.132;2023-09-12T05:01:56;97826.19;;;18.72;84.27
59106;BME280;44891;50.204;8.132;2023-09-12T05:05:58;97826.84;;;18.78;84.46
59106;BME280;44891;50.204;8.132;2023-09-12T05:10:00;97832.06;;;18.83;84.21
59106;BME280;44891;50.204;8.132;2023-09-12T05:14:05;97826.50;;;18.93;83.38
59106;BME280;44891;50.204;8.132;2023-09-12T05:18:07;97831.72;;;18.98;83.78
59106;BME280;44891;50.204;8.132;2023-09-12T05:22:10;97829.28;;;18.88;84.14
59106;BME280;44891;50.204;8.132;2023-09-12T05:26:12;97829.94;;;18.93;84.10
59106;BME280;44891;50.204;8.132;2023-09-12T05:30:15;97821.16;;;18.93;84.46
59106;BME280;44891;50.204;8.132;2023-09-12T05:34:18;97823.59;;;18.81;85.22
59106;BME280;44891;50.204;8.132;2023-09-12T05:38:20;97819.28;;;18.93;84.22
59106;BME280;44891;50.204;8.132;2023-09-12T05:42:22;97821.91;;;18.85;84.85
59106;BME280;44891;50.204;8.132;2023-09-12T05:46:25;97828.56;;;18.96;85.07
59106;BME280;44891;50.204;8.132;2023-09-12T05:50:28;97834.47;;;18.93;84.86
59106;BME280;44891;50.204;8.132;2023-09-12T05:54:30;97828.63;;;19.05;84.71
59106;BME280;44891;50.204;8.132;2023-09-12T05:58:32;97835.19;;;18.85;85.01
59106;BME280;44891;50.204;8.132;2023-09-12T06:02:37;97842.28;;;18.89;84.91
59106;BME280;44891;50.204;8.132;2023-09-12T06:06:39;97833.63;;;18.84;85.95
59106;BME280;44891;50.204;8.132;2023-09-12T06:10:41;97838.84;;;18.89;85.19
59106;BME280;44891;50.204;8.132;2023-09-12T06:14:43;97846.63;;;18.85;85.91
59106;BME280;44891;50.204;8.132;2023-09-12T06:18:47;97848.09;;;18.91;86.13
59106;BME280;44891;50.204;8.132;2023-09-12T06:22:49;97853.47;;;19.00;85.35
59106;BME280;44891;50.204;8.132;2023-09-12T06:26:52;97851.53;;;18.92;86.31
59106;BME280;44891;50.204;8.132;2023-09-12T06:30:54;97857.44;;;19.02;85.65
59106;BME280;44891;50.204;8.132;2023-09-12T06:34:59;97844.22;;;19.20;85.41
59106;BME280;44891;50.204;8.132;2023-09-12T06:39:01;97850.63;;;19.19;85.67
59106;BME280;44891;50.204;8.132;2023-09-12T06:43:04;97844.16;;;19.11;85.89
59106;BME280;44891;50.204;8.132;2023-09-12T06:47:06;97845.69;;;19.26;85.30
59106;BME280;44891;50.204;8.132;2023-09-12T06:51:12;97848.16;;;19.45;85.12
59106;BME280;44891;50.204;8.132;2023-09-12T06:55:14;97843.25;;;19.61;85.16
59106;BME280;44891;50.204;8.132;2023-09-12T06:59:16;97854.97;;;19.82;84.22
59106;BME280;44891;50.204;8.132;2023-09-12T07:03:19;97859.53;;;19.90;83.92
59106;BME280;44891;50.204;8.132;2023-09-12T07:07:22;97859.78;;;20.11;82.78
59106;BME280;44891;50.204;8.132;2023-09-12T07:11:24;97857.44;;;20.27;82.11
59106;BME280;44891;50.204;8.132;2023-09-12T07:15:26;97858.75;;;20.38;81.86
59106;BME280;44891;50.204;8.132;2023-09-12T07:19:28;97861.31;;;20.52;81.94
59106;BME280;44891;50.204;8.132;2023-09-12T07:23:32;97849.56;;;20.70;79.17
59106;BME280;44891;50.204;8.132;2023-09-12T07:27:34;97852.72;;;20.89;79.54
59106;BME280;44891;50.204;8.132;2023-09-12T07:31:36;97847.88;;;21.00;78.17
59106;BME280;44891;50.204;8.132;2023-09-12T07:35:38;97840.47;;;21.14;79.09
59106;BME280;44891;50.204;8.132;2023-09-12T07:39:42;97849.41;;;21.27;78.52
59106;BME280;44891;50.204;8.132;2023-09-12T07:43:44;97858.38;;;21.40;79.34
59106;BME280;44891;50.204;8.132;2023-09-12T07:47:46;97865.22;;;21.58;79.43
59106;BME280;44891;50.204;8.132;2023-09-12T07:51:49;97860.84;;;21.45;80.16
59106;BME280;44891;50.204;8.132;2023-09-12T07:55:52;97852.19;;;21.57;79.85
59106;BME280;44891;50.204;8.132;2023-09-12T07:59:55;97850.69;;;21.85;78.67
59106;BME280;44891;50.204;8.132;2023-09-12T08:03:58;97846.50;;;22.05;78.73
59106;BME280;44891;50.204;8.132;2023-09-12T08:08:00;97855.59;;;22.21;78.24
59106;BME280;44891;50.204;8.132;2023-09-12T08:12:04;97849.56;;;22.33;77.75
59106;BME280;44891;50.204;8.132;2023-09-12T08:16:06;97848.16;;;22.57;77.90
59106;BME280;44891;50.204;8.132;2023-09-12T08:20:09;97839.81;;;22.79;76.77
59106;BME280;44891;50.204;8.132;2023-09-12T08:24:11;97848.72;;;22.92;76.16
59106;BME280;44891;50.204;8.132;2023-09-12T08:28:15;97856.78;;;23.04;75.77
59106;BME280;44891;50.204;8.132;2023-09-12T08:32:17;97867.25;;;23.18;75.42
59106;BME280;44891;50.204;8.132;2023-09-12T08:36:19;97867.94;;;23.27;74.92
59106;BME280;44891;50.204;8.132;2023-09-12T08:40:21;97860.72;;;23.40;74.92
59106;BME280;44891;50.204;8.132;2023-09-12T08:44:25;97862.09;;;23.46;74.82
59106;BME280;44891;50.204;8.132;2023-09-12T08:48:28;97858.38;;;23.71;75.20
59106;BME280;44891;50.204;8.132;2023-09-12T08:52:32;97860.84;;;23.88;73.82
59106;BME280;44891;50.204;8.132;2023-09-12T08:56:36;97864.56;;;24.08;72.61
59106;BME280;44891;50.204;8.132;2023-09-12T09:00:43;97872.09;;;24.39;70.97
59106;BME280;44891;50.204;8.132;2023-09-12T09:04:46;97867.84;;;24.51;71.16
59106;BME280;44891;50.204;8.132;2023-09-12T09:08:49;97862.84;;;24.77;70.50
59106;BME280;44891;50.204;8.132;2023-09-12T09:12:51;97869.50;;;24.95;68.55
59106;BME280;44891;50.204;8.132;2023-09-12T09:16:55;97870.81;;;25.14;67.31
59106;BME280;44891;50.204;8.132;2023-09-12T09:20:57;97869.22;;;25.25;66.12
59106;BME280;44891;50.204;8.132;2023-09-12T09:25:09;97873.69;;;25.49;65.79
59106;BME280;44891;50.204;8.132;2023-09-12T09:29:14;97866.81;;;25.80;63.80
59106;BME280;44891;50.204;8.132;2023-09-12T09:33:18;97861.53;;;25.83;61.08
59106;BME280;44891;50.204;8.132;2023-09-12T09:37:20;97859.53;;;25.96;62.99
59106;BME280;44891;50.204;8.132;2023-09-12T09:41:22;97851.69;;;26.07;61.95
59106;BME280;44891;50.204;8.132;2023-09-12T09:45:25;97847.63;;;26.13;61.25
59106;BME280;44891;50.204;8.132;2023-09-12T09:49:31;97846.47;;;26.45;60.08
59106;BME280;44891;50.204;8.132;2023-09-12T09:53:34;97845.94;;;26.55;60.16
59106;BME280;44891;50.204;8.132;2023-09-12T09:57:38;97745.44;;;26.00;59.23
59106;BME280;44891;50.204;8.132;2023-09-12T10:01:41;97836.59;;;26.88;56.53
59106;BME280;44891;50.204;8.132;2023-09-12T10:05:48;97835.75;;;27.03;56.92
59106;BME280;44891;50.204;8.132;2023-09-12T10:09:53;97841.13;;;27.03;56.96
59106;BME280;44891;50.204;8.132;2023-09-12T10:13:56;97837.75;;;27.49;56.33
59106;BME280;44891;50.204;8.132;2023-09-12T10:18:00;97842.41;;;27.71;56.07
59106;BME280;44891;50.204;8.132;2023-09-12T10:22:09;97836.13;;;27.86;55.90
59106;BME280;44891;50.204;8.132;2023-09-12T10:26:13;97833.69;;;28.04;55.98
59106;BME280;44891;50.204;8.132;2023-09-12T10:30:15;97830.78;;;28.16;55.15
59106;BME280;44891;50.204;8.132;2023-09-12T10:34:20;97817.31;;;28.43;55.22
59106;BME280;44891;50.204;8.132;2023-09-12T10:38:26;97820.81;;;28.74;53.77
59106;BME280;44891;50.204;8.132;2023-09-12T10:42:28;97822.75;;;29.07;53.71
59106;BME280;44891;50.204;8.132;2023-09-12T10:46:31;97820.78;;;29.41;51.61
59106;BME280;44891;50.204;8.132;2023-09-12T10:50:34;97808.69;;;29.68;50.77
59106;BME280;44891;50.204;8.132;2023-09-12T10:54:39;97814.66;;;29.88;50.71
59106;BME280;44891;50.204;8.132;2023-09-12T10:59:12;97804.16;;;30.31;48.77
59106;BME280;44891;50.204;8.132;2023-09-12T11:03:37;97808.16;;;30.58;48.76
59106;BME280;44891;50.204;8.132;2023-09-12T11:07:48;97813.16;;;30.53;48.80
59106;BME280;44891;50.204;8.132;2023-09-12T11:11:55;97812.66;;;30.37;51.21
59106;BME280;44891;50.204;8.132;2023-09-12T11:16:10;97813.59;;;30.03;54.07
59106;BME280;44891;50.204;8.132;2023-09-12T11:20:14;97807.66;;;29.84;55.26
59106;BME280;44891;50.204;8.132;2023-09-12T11:24:18;97812.88;;;29.62;55.84
59106;BME280;44891;50.204;8.132;2023-09-12T11:28:29;97823.50;;;29.41;56.20
59106;BME280;44891;50.204;8.132;2023-09-12T11:32:32;97824.06;;;28.90;58.06
59106;BME280;44891;50.204;8.132;2023-09-12T11:36:38;97829.22;;;28.68;58.51
59106;BME280;44891;50.204;8.132;2023-09-12T11:40:43;97834.56;;;28.65;59.21
59106;BME280;44891;50.204;8.132;2023-09-12T11:44:48;97834.03;;;28.82;59.28
59106;BME280;44891;50.204;8.132;2023-09-12T11:48:51;97827.56;;;28.90;59.11
59106;BME280;44891;50.204;8.132;2023-09-12T11:52:59;97828.88;;;29.00;58.81
59106;BME280;44891;50.204;8.132;2023-09-12T11:57:02;97835.13;;;29.08;56.74
59106;BME280;44891;50.204;8.132;2023-09-12T12:01:05;97846.22;;;28.69;58.02
59106;BME280;44891;50.204;8.132;2023-09-12T12:05:07;97838.50;;;28.41;58.90
59106;BME280;44891;50.204;8.132;2023-09-12T12:09:10;97836.22;;;28.43;60.47
59106;BME280;44891;50.204;8.132;2023-09-12T12:13:16;97827.03;;;29.11;58.75
59106;BME280;44891;50.204;8.132;2023-09-12T12:17:19;97820.78;;;29.04;58.18
59106;BME280;44891;50.204;8.132;2023-09-12T12:21:22;97811.84;;;29.37;57.58
59106;BME280;44891;50.204;8.132;2023-09-12T12:25:24;97814.50;;;29.70;56.41
59106;BME280;44891;50.204;8.132;2023-09-12T12:29:26;97818.78;;;30.23;55.12
59106;BME280;44891;50.204;8.132;2023-09-12T12:33:30;97810.84;;;30.55;54.27
59106;BME280;44891;50.204;8.132;2023-09-12T12:37:32;97806.31;;;30.80;52.73
59106;BME280;44891;50.204;8.132;2023-09-12T12:41:35;97812.72;;;31.45;52.26
59106;BME280;44891;50.204;8.132;2023-09-12T12:45:37;97804.22;;;31.79;50.64
59106;BME280;44891;50.204;8.132;2023-09-12T12:49:40;97806.28;;;32.98;48.27
59106;BME280;44891;50.204;8.132;2023-09-12T12:53:46;97805.00;;;33.76;46.66
59106;BME280;44891;50.204;8.132;2023-09-12T12:57:49;97804.97;;;33.79;46.60
59106;BME280;44891;50.204;8.132;2023-09-12T13:01:51;97798.56;;;32.75;48.42
59106;BME280;44891;50.204;8.132;2023-09-12T13:05:54;97792.19;;;31.80;50.43
59106;BME280;44891;50.204;8.132;2023-09-12T13:09:56;97789.81;;;33.23;48.12
59106;BME280;44891;50.204;8.132;2023-09-12T13:13:58;97795.53;;;33.43;48.13
59106;BME280;44891;50.204;8.132;2023-09-12T13:18:00;97782.13;;;34.49;46.56
59106;BME280;44891;50.204;8.132;2023-09-12T13:22:06;97780.53;;;35.12;44.45
59106;BME280;44891;50.204;8.132;2023-09-12T13:26:09;97773.84;;;35.44;43.89
59106;BME280;44891;50.204;8.132;2023-09-12T13:30:11;97777.38;;;34.56;45.42
59106;BME280;44891;50.204;8.132;2023-09-12T13:34:14;97778.00;;;34.98;43.66
59106;BME280;44891;50.204;8.132;2023-09-12T13:38:17;97761.81;;;35.41;43.48
59106;BME280;44891;50.204;8.132;2023-09-12T13:42:20;97773.44;;;35.19;43.49
59106;BME280;44891;50.204;8.132;2023-09-12T13:46:22;97773.03;;;34.89;43.80
59106;BME280;44891;50.204;8.132;2023-09-12T13:50:24;97766.41;;;35.95;41.85
59106;BME280;44891;50.204;8.132;2023-09-12T13:54:28;97767.59;;;36.14;41.78
59106;BME280;44891;50.204;8.132;2023-09-12T13:58:30;97769.50;;;34.93;43.25
59106;BME280;44891;50.204;8.132;2023-09-12T14:02:32;97765.06;;;33.59;45.80
59106;BME280;44891;50.204;8.132;2023-09-12T14:06:34;97760.66;;;33.23;46.35
59106;BME280;44891;50.204;8.132;2023-09-12T14:10:38;97762.53;;;33.30;46.45
59106;BME280;44891;50.204;8.132;2023-09-12T14:14:40;97755.75;;;33.56;46.14
59106;BME280;44891;50.204;8.132;2023-09-12T14:18:42;97754.56;;;34.74;44.15
59106;BME280;44891;50.204;8.132;2023-09-12T14:22:44;97744.47;;;35.25;42.70
59106;BME280;44891;50.204;8.132;2023-09-12T14:26:47;97750.00;;;34.94;43.57
59106;BME280;44891;50.204;8.132;2023-09-12T14:30:50;97739.97;;;35.38;42.86
59106;BME280;44891;50.204;8.132;2023-09-12T14:34:53;97745.66;;;34.35;44.32
59106;BME280;44891;50.204;8.132;2023-09-12T14:38:55;97746.41;;;34.70;44.13
59106;BME280;44891;50.204;8.132;2023-09-12T14:42:58;97744.66;;;34.83;43.88
59106;BME280;44891;50.204;8.132;2023-09-12T14:47:01;97739.44;;;35.23;42.53
59106;BME280;44891;50.204;8.132;2023-09-12T14:51:03;97738.84;;;34.54;43.86
59106;BME280;44891;50.204;8.132;2023-09-12T14:55:06;97730.25;;;34.83;43.30
59106;BME280;44891;50.204;8.132;2023-09-12T14:59:10;97728.22;;;35.18;42.97
59106;BME280;44891;50.204;8.132;2023-09-12T15:03:14;97720.97;;;35.31;43.19
59106;BME280;44891;50.204;8.132;2023-09-12T15:07:16;97714.97;;;34.89;43.57
59106;BME280;44891;50.204;8.132;2023-09-12T15:11:18;97717.06;;;34.78;44.21
59106;BME280;44891;50.204;8.132;2023-09-12T15:15:22;97709.25;;;34.80;45.10
59106;BME280;44891;50.204;8.132;2023-09-12T15:19:24;97704.75;;;34.97;45.10
59106;BME280;44891;50.204;8.132;2023-09-12T15:23:26;97683.34;;;34.65;44.93
59106;BME280;44891;50.204;8.132;2023-09-12T15:27:29;97694.47;;;34.50;45.51
59106;BME280;44891;50.204;8.132;2023-09-12T15:31:32;97688.34;;;34.39;45.85
59106;BME280;44891;50.204;8.132;2023-09-12T15:35:35;97690.13;;;33.85;46.91
59106;BME280;44891;50.204;8.132;2023-09-12T15:39:37;97627.31;;;33.20;47.28
59106;BME280;44891;50.204;8.132;2023-09-12T15:43:39;97696.06;;;33.76;47.46
59106;BME280;44891;50.204;8.132;2023-09-12T15:47:43;97696.47;;;33.26;48.21
59106;BME280;44891;50.204;8.132;2023-09-12T15:51:45;97702.78;;;32.46;49.92
59106;BME280;44891;50.204;8.132;2023-09-12T15:55:47;97697.56;;;31.78;51.42
59106;BME280;44891;50.204;8.132;2023-09-12T15:59:50;97696.81;;;31.24;52.49
59106;BME280;44891;50.204;8.132;2023-09-12T16:03:53;97706.81;;;30.01;55.63
59106;BME280;44891;50.204;8.132;2023-09-12T16:07:56;97709.34;;;29.72;56.35
59106;BME280;44891;50.204;8.132;2023-09-12T16:11:58;97708.66;;;29.38;57.00
59106;BME280;44891;50.204;8.132;2023-09-12T16:16:00;97699.59;;;29.16;57.79
59106;BME280;44891;50.204;8.132;2023-09-12T16:20:05;97689.69;;;29.31;57.50
59106;BME280;44891;50.204;8.132;2023-09-12T16:24:09;97691.78;;;29.04;58.94
59106;BME280;44891;50.204;8.132;2023-09-12T16:28:12;97696.94;;;28.79;60.26
59106;BME280;44891;50.204;8.132;2023-09-12T16:32:14;97703.84;;;28.39;61.40
59106;BME280;44891;50.204;8.132;2023-09-12T16:36:17;97704.19;;;28.38;62.04
59106;BME280;44891;50.204;8.132;2023-09-12T16:40:19;97701.81;;;28.33;62.51
59106;BME280;44891;50.204;8.132;2023-09-12T16:44:21;97709.88;;;28.03;63.32
59106;BME280;44891;50.204;8.132;2023-09-12T16:48:24;97703.31;;;27.74;64.48
59106;BME280;44891;50.204;8.132;2023-09-12T16:52:27;97706.22;;;27.88;64.56
59106;BME280;44891;50.204;8.132;2023-09-12T16:56:31;97596.00;;;26.88;65.57
59106;BME280;44891;50.204;8.132;2023-09-12T17:00:33;97713.59;;;27.42;66.48
59106;BME280;44891;50.204;8.132;2023-09-12T17:04:35;97709.34;;;27.41;66.79
59106;BME280;44891;50.204;8.132;2023-09-12T17:08:39;97700.22;;;27.26;67.01
59106;BME280;44891;50.204;8.132;2023-09-12T17:12:41;97693.44;;;27.13;67.86
59106;BME280;44891;50.204;8.132;2023-09-12T17:16:43;97699.19;;;27.11;68.46
59106;BME280;44891;50.204;8.132;2023-09-12T17:20:45;97703.03;;;27.10;68.51
59106;BME280;44891;50.204;8.132;2023-09-12T17:24:48;97694.19;;;26.90;69.12
59106;BME280;44891;50.204;8.132;2023-09-12T17:28:50;97690.13;;;26.77;69.42
59106;BME280;44891;50.204;8.132;2023-09-12T17:32:52;97684.50;;;26.66;70.13
59106;BME280;44891;50.204;8.132;2023-09-12T17:36:54;97689.09;;;26.43;71.05
59106;BME280;44891;50.204;8.132;2023-09-12T17:40:58;97672.69;;;26.32;71.12
59106;BME280;44891;50.204;8.132;2023-09-12T17:45:00;97659.84;;;26.06;72.08
59106;BME280;44891;50.204;8.132;2023-09-12T17:49:04;97681.59;;;25.97;72.86
59106;BME280;44891;50.204;8.132;2023-09-12T17:53:06;97675.34;;;25.93;72.66
59106;BME280;44891;50.204;8.132;2023-09-12T17:57:09;97686.22;;;25.81;73.36
59106;BME280;44891;50.204;8.132;2023-09-12T18:01:11;97693.09;;;25.47;74.51
59106;BME280;44891;50.204;8.132;2023-09-12T18:05:14;97700.03;;;25.48;73.91
59106;BME280;44891;50.204;8.132;2023-09-12T18:09:16;97690.69;;;25.26;74.63
59106;BME280;44891;50.204;8.132;2023-09-12T18:13:19;97695.47;;;25.17;74.98
59106;BME280;44891;50.204;8.132;2023-09-12T18:17:21;97697.81;;;25.18;75.05
59106;BME280;44891;50.204;8.132;2023-09-12T18:21:23;97693.03;;;25.12;74.41
59106;BME280;44891;50.204;8.132;2023-09-12T18:25:26;97674.38;;;25.03;75.33
59106;BME280;44891;50.204;8.132;2023-09-12T18:29:30;97660.91;;;24.87;75.63
59106;BME280;44891;50.204;8.132;2023-09-12T18:33:32;97652.38;;;24.13;78.75
59106;BME280;44891;50.204;8.132;2023-09-12T18:37:34;97675.47;;;23.90;76.35
59106;BME280;44891;50.204;8.132;2023-09-12T18:41:37;97672.50;;;21.89;75.11
59106;BME280;44891;50.204;8.132;2023-09-12T18:45:41;97733.53;;;22.17;71.49
59106;BME280;44891;50.204;8.132;2023-09-12T18:49:45;97735.09;;;22.18;74.08
59106;BME280;44891;50.204;8.132;2023-09-12T18:53:47;97741.53;;;22.17;76.33
59106;BME280;44891;50.204;8.132;2023-09-12T18:57:49;97817.38;;;21.83;79.39
59106;BME280;44891;50.204;8.132;2023-09-12T19:01:53;97919.63;;;21.28;84.29
59106;BME280;44891;50.204;8.132;2023-09-12T19:05:55;97886.31;;;20.82;84.30
59106;BME280;44891;50.204;8.132;2023-09-12T19:09:57;97872.41;;;20.36;85.20
59106;BME280;44891;50.204;8.132;2023-09-12T19:13:59;97917.41;;;19.98;90.96
59106;BME280;44891;50.204;8.132;2023-09-12T19:18:04;97909.03;;;19.15;100.00
59106;BME280;44891;50.204;8.132;2023-09-12T19:22:07;97952.34;;;19.66;99.35
59106;BME280;44891;50.204;8.132;2023-09-12T19:26:09;97965.53;;;19.93;95.25
59106;BME280;44891;50.204;8.132;2023-09-12T19:30:13;97958.88;;;19.82;93.24
59106;BME280;44891;50.204;8.132;2023-09-12T19:34:16;97968.38;;;19.97;94.18
59106;BME280;44891;50.204;8.132;2023-09-12T19:38:18;97974.03;;;19.95;94.13
59106;BME280;44891;50.204;8.132;2023-09-12T19:42:21;97888.63;;;19.78;92.76
59106;BME280;44891;50.204;8.132;2023-09-12T19:46:23;97890.44;;;20.00;92.09
59106;BME280;44891;50.204;8.132;2023-09-12T19:50:26;97930.31;;;20.05;89.43
59106;BME280;44891;50.204;8.132;2023-09-12T19:54:28;97930.16;;;20.01;89.99
59106;BME280;44891;50.204;8.132;2023-09-12T19:58:30;97944.19;;;19.93;90.68
59106;BME280;44891;50.204;8.132;2023-09-12T20:02:34;97928.00;;;19.81;91.63
59106;BME280;44891;50.204;8.132;2023-09-12T20:06:37;97909.59;;;19.71;91.43
59106;BME280;44891;50.204;8.132;2023-09-12T20:10:39;97898.38;;;19.82;92.12
59106;BME280;44891;50.204;8.132;2023-09-12T20:14:42;97871.00;;;19.99;93.78
59106;BME280;44891;50.204;8.132;2023-09-12T20:18:44;97845.53;;;20.16;93.05
59106;BME280;44891;50.204;8.132;2023-09-12T20:22:47;97827.09;;;19.97;94.94
59106;BME280;44891;50.204;8.132;2023-09-12T20:26:50;97853.09;;;19.82;93.63
59106;BME280;44891;50.204;8.132;2023-09-12T20:30:52;97868.53;;;19.72;93.52
59106;BME280;44891;50.204;8.132;2023-09-12T20:34:56;97864.00;;;19.72;94.21
59106;BME280;44891;50.204;8.132;2023-09-12T20:39:25;97836.66;;;19.98;95.61
59106;BME280;44891;50.204;8.132;2023-09-12T20:43:27;97837.63;;;20.02;96.70
59106;BME280;44891;50.204;8.132;2023-09-12T20:47:30;97840.47;;;20.05;96.25
59106;BME280;44891;50.204;8.132;2023-09-12T20:51:32;97852.28;;;19.82;94.54
59106;BME280;44891;50.204;8.132;2023-09-12T20:55:37;97849.91;;;19.80;94.63
59106;BME280;44891;50.204;8.132;2023-09-12T20:59:39;97858.41;;;19.82;93.77
59106;BME280;44891;50.204;8.132;2023-09-12T21:03:41;97849.84;;;19.63;95.70
59106;BME280;44891;50.204;8.132;2023-09-12T21:07:43;97824.72;;;19.55;94.59
59106;BME280;44891;50.204;8.132;2023-09-12T21:11:47;97880.28;;;19.71;96.32
59106;BME280;44891;50.204;8.132;2023-09-12T21:15:49;97888.28;;;19.71;96.33
59106;BME280;44891;50.204;8.132;2023-09-12T21:19:52;97887.63;;;19.65;97.13
59106;BME280;44891;50.204;8.132;2023-09-12T21:23:54;97893.72;;;19.66;97.59
59106;BME280;44891;50.204;8.132;2023-09-12T21:27:58;97885.25;;;19.64;96.74